createdAt,value
2019-02-21T00:00:24.837Z,5.45
2019-02-21T00:02:54.672Z,5.40
2019-02-21T00:05:24.414Z,5.39
2019-02-21T00:07:54.215Z,5.28
2019-02-21T00:10:25.571Z,5.29
2019-02-21T00:12:55.403Z,5.23
2019-02-21T00:15:26.319Z,5.36
2019-02-21T00:17:56.100Z,5.28
2019-02-21T00:20:25.926Z,5.15
2019-02-21T00:22:55.725Z,5.03
2019-02-21T00:25:25.527Z,5.11
2019-02-21T00:27:55.320Z,5.07
2019-02-21T00:30:34.833Z,5.06
2019-02-21T00:32:56.864Z,5.26
2019-02-21T00:35:26.687Z,5.27
2019-02-21T00:37:56.502Z,5.20
2019-02-21T00:40:26.417Z,5.26
2019-02-21T00:42:56.221Z,5.20
2019-02-21T00:45:26.023Z,4.94
2019-02-21T00:47:55.816Z,4.74
2019-02-21T00:50:25.764Z,4.53
2019-02-21T00:52:55.569Z,4.42
2019-02-21T00:55:27.787Z,4.41
2019-02-21T00:57:56.936Z,4.38
2019-02-21T01:00:26.730Z,4.41
2019-02-21T01:02:56.564Z,4.38
2019-02-21T01:05:26.385Z,4.39
2019-02-21T01:07:56.238Z,4.48
2019-02-21T01:10:26.058Z,4.37
2019-02-21T01:12:55.833Z,4.30
2019-02-21T01:15:26.098Z,4.24
2019-02-21T01:17:55.907Z,4.25
2019-02-21T01:20:25.728Z,4.24
2019-02-21T01:22:55.603Z,4.20
2019-02-21T01:25:25.384Z,4.21
2019-02-21T01:27:55.192Z,4.23
2019-02-21T01:30:25.087Z,4.46
2019-02-21T01:32:54.886Z,4.55
2019-02-21T01:35:24.796Z,4.60
2019-02-21T01:37:54.670Z,4.55
2019-02-21T01:40:24.456Z,4.51
2019-02-21T01:42:57.301Z,4.63
2019-02-21T01:45:27.177Z,4.68
2019-02-21T01:47:56.981Z,4.53
2019-02-21T01:50:26.826Z,4.38
2019-02-21T01:52:56.734Z,4.27
2019-02-21T01:55:26.952Z,4.25
2019-02-21T01:57:56.798Z,4.25
2019-02-21T02:00:26.524Z,4.23
2019-02-21T02:02:56.354Z,4.24
2019-02-21T02:05:26.077Z,4.23
2019-02-21T02:07:55.877Z,4.31
2019-02-21T02:10:25.706Z,4.46
2019-02-21T02:12:55.527Z,4.42
2019-02-21T02:15:25.425Z,4.48
2019-02-21T02:17:55.217Z,4.50
2019-02-21T02:20:27.868Z,4.52
2019-02-21T02:22:57.705Z,4.50
2019-02-21T02:25:27.445Z,4.33
2019-02-21T02:27:57.273Z,4.31
2019-02-21T02:30:27.088Z,4.40
2019-02-21T02:32:56.886Z,4.26
2019-02-21T02:35:26.659Z,4.16
2019-02-21T02:37:56.486Z,4.13
2019-02-21T02:40:26.323Z,4.08
2019-02-21T02:42:56.163Z,4.07
2019-02-21T02:45:25.893Z,4.19
2019-02-21T02:47:55.655Z,4.22
2019-02-21T02:50:25.636Z,4.25
2019-02-21T02:52:55.463Z,4.20
2019-02-21T02:55:25.276Z,4.16
2019-02-21T02:57:55.549Z,4.26
2019-02-21T03:00:25.383Z,4.25
2019-02-21T03:02:55.251Z,4.26
2019-02-21T03:05:25.002Z,4.23
2019-02-21T03:07:54.819Z,4.27
2019-02-21T03:10:24.676Z,4.30
2019-02-21T03:12:54.451Z,4.44
2019-02-21T03:15:24.319Z,4.31
2019-02-21T03:17:54.207Z,4.18
2019-02-21T03:20:23.942Z,4.23
2019-02-21T03:22:53.717Z,4.10
2019-02-21T03:25:24.089Z,3.99
2019-02-21T03:27:53.889Z,3.91
2019-02-21T03:30:23.697Z,3.89
2019-02-21T03:32:53.515Z,4.02
2019-02-21T03:35:23.530Z,4.08
2019-02-21T03:37:53.459Z,4.23
2019-02-21T03:40:23.286Z,4.18
2019-02-21T03:42:53.148Z,4.11
2019-02-21T03:45:23.067Z,4.08
2019-02-21T03:47:52.902Z,4.19
2019-02-21T03:50:22.722Z,4.13
2019-02-21T03:52:52.571Z,4.08
2019-02-21T03:55:22.397Z,4.10
2019-02-21T03:57:52.163Z,4.28
2019-02-21T04:00:21.985Z,4.35
2019-02-21T04:02:51.788Z,4.48
2019-02-21T04:05:21.711Z,4.49
2019-02-21T04:07:51.494Z,4.63
2019-02-21T04:10:21.300Z,4.61
2019-02-21T04:12:51.190Z,4.48
2019-02-21T04:15:21.160Z,4.41
2019-02-21T04:17:51.058Z,4.53
2019-02-21T04:20:20.882Z,4.35
2019-02-21T04:22:50.690Z,4.42
2019-02-21T04:25:20.501Z,4.46
2019-02-21T04:27:50.300Z,4.46
2019-02-21T04:30:20.179Z,4.53
2019-02-21T04:32:49.986Z,4.41
2019-02-21T04:35:19.798Z,4.40
2019-02-21T04:37:49.687Z,4.38
2019-02-21T04:40:19.515Z,4.32
2019-02-21T04:42:49.706Z,4.33
2019-02-21T04:45:19.501Z,4.37
2019-02-21T04:47:49.296Z,4.39
2019-02-21T04:50:19.092Z,4.43
2019-02-21T04:52:48.924Z,4.42
2019-02-21T04:55:18.661Z,4.43
2019-02-21T04:57:48.381Z,4.45
2019-02-21T05:00:18.266Z,4.52
2019-02-21T05:02:48.063Z,4.52
2019-02-21T05:05:17.912Z,4.47
2019-02-21T05:07:47.778Z,4.47
2019-02-21T05:10:17.554Z,4.50
2019-02-21T05:12:47.516Z,4.50
2019-02-21T05:15:17.402Z,4.44
2019-02-21T05:17:47.212Z,4.44
2019-02-21T05:20:17.066Z,4.34
2019-02-21T05:22:46.898Z,4.33
2019-02-21T05:25:16.686Z,4.32
2019-02-21T05:27:47.835Z,4.28
2019-02-21T05:30:19.230Z,4.25
2019-02-21T05:33:06.939Z,4.19
2019-02-21T05:35:38.266Z,4.18
2019-02-21T05:38:18.521Z,4.20
2019-02-21T05:40:49.919Z,4.16
2019-02-21T05:43:24.355Z,4.16
2019-02-21T05:45:55.751Z,4.09
2019-02-21T05:48:33.071Z,4.10
2019-02-21T05:51:10.730Z,4.07
2019-02-21T05:53:45.021Z,4.11
2019-02-21T05:56:19.198Z,4.11
2019-02-21T05:59:05.709Z,4.13
2019-02-21T06:01:42.767Z,4.13
2019-02-21T06:04:32.285Z,4.14
2019-02-21T06:07:12.339Z,4.14
2019-02-21T06:09:43.808Z,4.16
2019-02-21T06:12:32.800Z,4.18
2019-02-21T06:15:02.567Z,4.86
2019-02-21T06:17:36.515Z,5.73
2019-02-21T06:20:08.586Z,6.05
2019-02-21T06:22:39.959Z,6.22
2019-02-21T06:25:11.365Z,6.09
2019-02-21T06:27:42.731Z,6.02
2019-02-21T06:30:16.858Z,6.17
2019-02-21T06:32:46.597Z,6.48
2019-02-21T06:35:16.372Z,6.56
2019-02-21T06:37:46.185Z,6.51
2019-02-21T06:40:16.006Z,6.35
2019-02-21T06:42:45.815Z,6.04
2019-02-21T06:45:18.015Z,5.88
2019-02-21T06:47:47.193Z,5.71
2019-02-21T06:50:26.366Z,5.58
2019-02-21T06:52:48.553Z,5.52
2019-02-21T06:55:20.542Z,5.52
2019-02-21T06:57:49.784Z,5.49
2019-02-21T07:00:19.625Z,5.49
2019-02-21T07:02:49.969Z,5.43
2019-02-21T07:05:19.779Z,5.38
2019-02-21T07:07:49.942Z,5.33
2019-02-21T07:10:19.802Z,5.39
2019-02-21T07:12:49.538Z,5.37
2019-02-21T07:15:19.405Z,5.36
2019-02-21T07:17:49.845Z,5.45
2019-02-21T07:20:19.750Z,5.89
2019-02-21T07:22:49.578Z,5.78
2019-02-21T07:25:20.925Z,5.67
2019-02-21T07:27:50.768Z,6.56
2019-02-21T07:30:23.068Z,6.41
2019-02-21T07:32:52.106Z,6.21
2019-02-21T07:35:22.941Z,6.27
2019-02-21T07:37:52.747Z,6.33
2019-02-21T07:40:22.547Z,6.32
2019-02-21T07:42:52.366Z,6.79
2019-02-21T07:45:22.125Z,7.47
2019-02-21T07:47:51.953Z,7.48
2019-02-21T07:50:23.205Z,7.45
2019-02-21T07:53:01.953Z,7.43
2019-02-21T07:55:24.646Z,7.77
2019-02-21T07:57:54.512Z,7.90
2019-02-21T08:00:24.297Z,8.05
2019-02-21T08:02:54.160Z,8.09
2019-02-21T08:05:23.968Z,8.29
2019-02-21T08:07:53.779Z,8.61
2019-02-21T08:10:33.121Z,8.58
2019-02-21T08:12:55.165Z,8.58
2019-02-21T08:15:27.563Z,8.80
2019-02-21T08:17:56.445Z,9.02
2019-02-21T08:20:33.971Z,9.18
2019-02-21T08:22:57.840Z,9.26
2019-02-21T08:25:27.731Z,9.10
2019-02-21T08:27:57.528Z,9.38
2019-02-21T08:30:29.206Z,9.73
2019-02-21T08:33:00.521Z,10.17
2019-02-21T08:35:31.192Z,10.45
2019-02-21T08:38:01.072Z,10.14
2019-02-21T08:40:30.898Z,10.58
2019-02-21T08:43:00.801Z,10.84
2019-02-21T08:45:30.617Z,10.93
2019-02-21T08:48:00.469Z,11.13
2019-02-21T08:50:30.298Z,10.82
2019-02-21T08:53:01.100Z,10.95
2019-02-21T08:55:31.140Z,11.31
2019-02-21T08:58:01.081Z,11.63
2019-02-21T09:00:31.682Z,11.73
2019-02-21T09:03:01.836Z,11.86
2019-02-21T09:05:31.748Z,12.03
2019-02-21T09:08:01.467Z,12.10
2019-02-21T09:10:31.300Z,12.01
2019-02-21T09:13:01.163Z,12.11
2019-02-21T09:15:30.908Z,12.10
2019-02-21T09:18:00.791Z,12.21
2019-02-21T09:20:30.645Z,12.33
2019-02-21T09:23:00.353Z,12.29
2019-02-21T09:25:30.218Z,12.33
2019-02-21T09:28:01.121Z,12.45
2019-02-21T09:30:30.932Z,12.72
2019-02-21T09:33:00.748Z,12.81
2019-02-21T09:35:30.504Z,12.64
2019-02-21T09:38:00.271Z,12.79
2019-02-21T09:40:30.131Z,12.70
2019-02-21T09:42:59.926Z,12.65
2019-02-21T09:45:29.867Z,12.60
2019-02-21T09:47:59.714Z,12.58
2019-02-21T09:50:29.595Z,12.15
2019-02-21T09:52:59.444Z,11.96
2019-02-21T09:55:29.789Z,11.99
2019-02-21T09:57:59.752Z,12.12
2019-02-21T10:00:29.561Z,12.33
2019-02-21T10:02:59.366Z,12.29
2019-02-21T10:05:29.086Z,12.46
2019-02-21T10:07:58.965Z,12.54
2019-02-21T10:10:28.804Z,12.64
2019-02-21T10:12:58.564Z,12.72
2019-02-21T10:15:28.403Z,12.76
2019-02-21T10:17:58.159Z,12.43
2019-02-21T10:20:28.013Z,12.18
2019-02-21T10:22:57.848Z,12.34
2019-02-21T10:25:31.431Z,12.40
2019-02-21T10:28:01.311Z,12.35
2019-02-21T10:30:31.115Z,12.33
2019-02-21T10:33:00.946Z,12.43
2019-02-21T10:35:30.840Z,12.48
2019-02-21T10:38:00.657Z,12.54
2019-02-21T10:40:30.490Z,12.63
2019-02-21T10:43:00.438Z,12.71
2019-02-21T10:45:30.647Z,12.74
2019-02-21T10:48:00.531Z,12.81
2019-02-21T10:50:30.350Z,12.79
2019-02-21T10:53:03.222Z,12.79
2019-02-21T10:55:33.031Z,12.75
2019-02-21T10:58:02.794Z,12.76
2019-02-21T11:00:32.580Z,12.69
2019-02-21T11:03:02.404Z,12.69
2019-02-21T11:05:32.264Z,12.72
2019-02-21T11:08:02.246Z,12.73
2019-02-21T11:10:32.070Z,12.76
2019-02-21T11:13:01.948Z,12.71
2019-02-21T11:15:31.679Z,12.77
2019-02-21T11:18:01.559Z,12.78
2019-02-21T11:20:31.988Z,12.82
2019-02-21T11:23:01.804Z,12.69
2019-02-21T11:25:31.581Z,12.73
2019-02-21T11:28:01.393Z,12.62
2019-02-21T11:30:31.189Z,12.62
2019-02-21T11:33:01.068Z,12.59
2019-02-21T11:35:30.881Z,12.53
2019-02-21T11:38:00.649Z,12.53
2019-02-21T11:40:30.493Z,12.58
2019-02-21T11:43:02.415Z,12.48
2019-02-21T11:45:32.726Z,12.55
2019-02-21T11:48:02.618Z,12.62
2019-02-21T11:50:32.414Z,12.60
2019-02-21T11:53:02.247Z,12.57
2019-02-21T11:55:32.103Z,12.55
2019-02-21T11:58:01.954Z,12.56
2019-02-21T12:00:31.869Z,12.56
2019-02-21T12:03:01.745Z,12.53
2019-02-21T12:05:32.194Z,12.56
2019-02-21T12:08:02.191Z,12.67
2019-02-21T12:10:32.016Z,12.71
2019-02-21T12:13:01.863Z,12.74
2019-02-21T12:15:31.627Z,12.83
2019-02-21T12:18:01.368Z,12.96
2019-02-21T12:20:31.263Z,12.98
2019-02-21T12:23:01.119Z,12.85
2019-02-21T12:25:31.028Z,12.86
2019-02-21T12:28:00.759Z,12.85
2019-02-21T12:30:33.442Z,12.81
2019-02-21T12:33:03.457Z,12.77
2019-02-21T12:35:33.321Z,12.80
2019-02-21T12:38:03.086Z,12.91
2019-02-21T12:40:32.958Z,12.90
2019-02-21T12:43:02.777Z,12.78
2019-02-21T12:45:32.567Z,12.82
2019-02-21T12:48:02.467Z,12.81
2019-02-21T12:50:43.667Z,12.81
2019-02-21T12:53:03.812Z,12.80
2019-02-21T12:55:33.682Z,12.77
2019-02-21T12:58:03.503Z,12.76
2019-02-21T13:00:33.383Z,12.74
2019-02-21T13:03:03.230Z,12.73
2019-02-21T13:05:40.500Z,12.75
2019-02-21T13:08:04.633Z,12.79
2019-02-21T13:10:35.076Z,12.81
2019-02-21T13:13:05.089Z,12.82
2019-02-21T13:15:34.893Z,12.88
2019-02-21T13:18:15.073Z,12.81
2019-02-21T13:20:36.328Z,12.79
2019-02-21T13:23:06.184Z,12.75
2019-02-21T13:25:36.004Z,12.76
2019-02-21T13:28:05.801Z,12.74
2019-02-21T13:30:35.627Z,12.75
2019-02-21T13:33:05.362Z,12.73
2019-02-21T13:35:35.241Z,12.77
2019-02-21T13:38:05.079Z,12.74
2019-02-21T13:40:34.898Z,12.72
2019-02-21T13:43:04.759Z,12.71
2019-02-21T13:45:34.560Z,12.71
2019-02-21T13:48:04.399Z,12.81
2019-02-21T13:50:34.353Z,12.77
2019-02-21T13:53:04.160Z,12.74
2019-02-21T13:55:33.932Z,12.77
2019-02-21T13:58:03.821Z,12.76
2019-02-21T14:00:36.605Z,12.77
2019-02-21T14:03:06.411Z,12.79
2019-02-21T14:05:36.293Z,12.79
2019-02-21T14:08:06.061Z,12.81
2019-02-21T14:10:35.864Z,12.84
2019-02-21T14:13:05.865Z,12.84
2019-02-21T14:15:35.652Z,12.86
2019-02-21T14:18:05.530Z,12.86
2019-02-21T14:20:44.933Z,12.88
2019-02-21T14:23:06.844Z,12.90
2019-02-21T14:25:40.864Z,12.91
2019-02-21T14:28:08.139Z,12.98
2019-02-21T14:30:37.911Z,12.98
2019-02-21T14:33:07.797Z,13.01
2019-02-21T14:35:37.627Z,13.05
2019-02-21T14:38:07.383Z,13.03
2019-02-21T14:40:37.268Z,13.02
2019-02-21T14:43:07.080Z,12.99
2019-02-21T14:45:36.861Z,12.96
2019-02-21T14:48:06.811Z,12.93
2019-02-21T14:50:36.643Z,12.93
2019-02-21T14:53:06.459Z,12.96
2019-02-21T14:55:36.306Z,12.92
2019-02-21T14:58:06.182Z,12.91
2019-02-21T15:00:36.067Z,12.90
2019-02-21T15:03:06.003Z,12.89
2019-02-21T15:05:35.842Z,12.88
2019-02-21T15:08:05.714Z,12.82
2019-02-21T15:10:35.542Z,12.82
2019-02-21T15:13:05.374Z,12.81
2019-02-21T15:15:35.162Z,12.75
2019-02-21T15:18:08.310Z,12.72
2019-02-21T15:20:37.298Z,12.64
2019-02-21T15:23:07.395Z,12.60
2019-02-21T15:25:37.236Z,12.53
2019-02-21T15:28:07.080Z,12.48
2019-02-21T15:30:36.903Z,12.46
2019-02-21T15:33:06.726Z,12.39
2019-02-21T15:35:36.567Z,12.34
2019-02-21T15:38:06.427Z,12.29
2019-02-21T15:40:36.277Z,12.23
2019-02-21T15:43:06.091Z,12.18
2019-02-21T15:45:36.036Z,12.14
2019-02-21T15:48:05.914Z,12.10
2019-02-21T15:50:35.791Z,12.07
2019-02-21T15:53:05.698Z,12.03
2019-02-21T15:55:35.543Z,11.98
2019-02-21T15:58:05.405Z,11.92
2019-02-21T16:00:35.297Z,8.33
2019-02-21T16:03:05.146Z,11.78
2019-02-21T16:05:34.970Z,11.72
2019-02-21T16:08:04.883Z,11.68
2019-02-21T16:10:34.706Z,11.60
2019-02-21T16:13:05.317Z,11.53
2019-02-21T16:15:35.483Z,11.52
2019-02-21T16:18:05.327Z,11.48
2019-02-21T16:20:35.236Z,11.43
2019-02-21T16:23:05.072Z,11.34
2019-02-21T16:25:34.915Z,11.22
2019-02-21T16:28:04.805Z,11.14
2019-02-21T16:30:34.731Z,11.01
2019-02-21T16:33:04.583Z,10.90
2019-02-21T16:35:34.529Z,10.78
2019-02-21T16:38:04.467Z,10.69
2019-02-21T16:40:34.286Z,10.63
2019-02-21T16:43:04.222Z,10.54
2019-02-21T16:45:42.925Z,10.46
2019-02-21T16:48:05.565Z,10.41
2019-02-21T16:50:35.472Z,10.34
2019-02-21T16:53:05.321Z,10.26
2019-02-21T16:55:35.165Z,10.18
2019-02-21T16:58:05.064Z,10.10
2019-02-21T17:00:47.429Z,10.12
2019-02-21T17:03:06.618Z,10.06
2019-02-21T17:05:36.437Z,10.02
2019-02-21T17:08:06.476Z,9.97
2019-02-21T17:10:36.330Z,9.92
2019-02-21T17:13:06.217Z,9.90
2019-02-21T17:15:36.154Z,9.88
2019-02-21T17:18:06.009Z,9.83
2019-02-21T17:20:35.888Z,9.76
2019-02-21T17:23:05.845Z,9.68
2019-02-21T17:25:35.702Z,9.65
2019-02-21T17:28:05.552Z,9.61
2019-02-21T17:30:35.332Z,9.64
2019-02-21T17:33:05.395Z,9.71
2019-02-21T17:35:35.264Z,10.06
2019-02-21T17:38:05.180Z,10.46
2019-02-21T17:40:35.040Z,10.33
2019-02-21T17:43:04.878Z,10.20
2019-02-21T17:45:34.784Z,10.04
2019-02-21T17:48:04.719Z,9.93
2019-02-21T17:50:34.574Z,9.86
2019-02-21T17:53:04.482Z,9.92
2019-02-21T17:55:34.336Z,9.89
2019-02-21T17:58:04.138Z,9.87
2019-02-21T18:00:38.354Z,10.07
2019-02-21T18:03:08.342Z,10.18
2019-02-21T18:05:39.204Z,10.21
2019-02-21T18:08:09.044Z,10.05
2019-02-21T18:10:38.882Z,9.96
2019-02-21T18:13:08.740Z,9.89
2019-02-21T18:15:38.614Z,9.84
2019-02-21T18:18:08.448Z,9.85
2019-02-21T18:20:38.306Z,9.88
2019-02-21T18:23:08.166Z,9.75
2019-02-21T18:25:47.164Z,9.77
2019-02-21T18:28:16.998Z,9.82
2019-02-21T18:30:47.393Z,9.81
2019-02-21T18:33:17.211Z,9.97
2019-02-21T18:35:47.132Z,9.95
2019-02-21T18:38:16.988Z,9.95
2019-02-21T18:40:46.851Z,9.96
2019-02-21T18:43:17.420Z,10.43
2019-02-21T18:45:47.247Z,10.75
2019-02-21T18:48:17.101Z,10.65
2019-02-21T18:50:46.896Z,10.57
2019-02-21T18:53:16.791Z,10.49
2019-02-21T18:55:46.702Z,10.42
2019-02-21T18:58:16.536Z,10.34
2019-02-21T19:00:46.437Z,10.34
2019-02-21T19:03:16.321Z,10.46
2019-02-21T19:05:46.185Z,10.68
2019-02-21T19:08:16.096Z,10.57
2019-02-21T19:10:45.899Z,10.51
2019-02-21T19:13:15.690Z,10.50
2019-02-21T19:15:46.017Z,10.48
2019-02-21T19:18:15.868Z,10.45
2019-02-21T19:20:45.734Z,10.43
2019-02-21T19:23:15.576Z,10.41
2019-02-21T19:25:45.359Z,10.51
2019-02-21T19:28:15.864Z,10.48
2019-02-21T19:30:48.796Z,10.43
2019-02-21T19:33:18.578Z,10.39
2019-02-21T19:35:48.740Z,10.37
2019-02-21T19:38:18.696Z,10.35
2019-02-21T19:40:49.936Z,10.31
2019-02-21T19:43:19.875Z,10.28
2019-02-21T19:45:49.730Z,10.28
2019-02-21T19:48:19.568Z,10.24
2019-02-21T19:50:49.396Z,10.23
2019-02-21T19:53:19.253Z,10.19
2019-02-21T19:55:48.989Z,10.18
2019-02-21T19:58:19.215Z,10.17
2019-02-21T20:00:49.468Z,10.15
2019-02-21T20:03:19.392Z,10.14
2019-02-21T20:05:49.468Z,10.10
2019-02-21T20:08:21.596Z,10.08
2019-02-21T20:10:53.883Z,10.05
2019-02-21T20:13:24.517Z,10.00
2019-02-21T20:15:54.335Z,9.96
2019-02-21T20:18:24.175Z,9.94
2019-02-21T20:20:54.071Z,9.90
2019-02-21T20:23:23.933Z,9.89
2019-02-21T20:25:53.828Z,9.86
2019-02-21T20:28:23.679Z,9.84
2019-02-21T20:30:54.945Z,9.81
2019-02-21T20:33:24.769Z,9.78
2019-02-21T20:35:54.749Z,9.74
2019-02-21T20:38:32.089Z,9.70
2019-02-21T20:40:57.144Z,9.70
2019-02-21T20:43:28.185Z,9.68
2019-02-21T20:45:58.094Z,9.69
2019-02-21T20:48:30.503Z,9.64
2019-02-21T20:51:01.530Z,9.54
2019-02-21T20:53:31.234Z,9.58
2019-02-21T20:56:01.516Z,9.51
2019-02-21T20:58:31.332Z,9.39
2019-02-21T21:01:01.377Z,9.31
2019-02-21T21:03:31.207Z,9.24
2019-02-21T21:06:01.099Z,9.24
2019-02-21T21:08:30.915Z,9.42
2019-02-21T21:11:00.753Z,9.30
2019-02-21T21:13:30.580Z,9.17
2019-02-21T21:16:00.428Z,9.12
2019-02-21T21:18:30.155Z,9.10
2019-02-21T21:20:59.998Z,6.71
2019-02-21T21:23:29.879Z,9.09
2019-02-21T21:25:59.707Z,9.08
2019-02-21T21:28:29.549Z,9.06
2019-02-21T21:30:59.356Z,9.03
2019-02-21T21:33:29.244Z,9.02
2019-02-21T21:35:59.174Z,8.97
2019-02-21T21:38:29.090Z,8.94
2019-02-21T21:40:58.937Z,8.91
2019-02-21T21:43:28.768Z,8.90
2019-02-21T21:45:58.614Z,8.94
2019-02-21T21:48:28.493Z,8.91
2019-02-21T21:50:58.299Z,8.87
2019-02-21T21:53:28.156Z,8.84
2019-02-21T21:55:58.001Z,8.80
2019-02-21T21:58:27.879Z,8.73
2019-02-21T22:00:57.804Z,8.72
2019-02-21T22:03:27.650Z,8.72
2019-02-21T22:05:57.482Z,8.71
2019-02-21T22:08:27.257Z,8.71
2019-02-21T22:10:57.076Z,8.73
2019-02-21T22:13:26.895Z,8.74
2019-02-21T22:15:56.613Z,8.74
2019-02-21T22:18:26.412Z,8.74
2019-02-21T22:20:56.256Z,8.73
2019-02-21T22:23:26.072Z,8.80
2019-02-21T22:25:55.870Z,8.69
2019-02-21T22:28:26.401Z,8.60
2019-02-21T22:30:58.125Z,8.59
2019-02-21T22:33:28.067Z,8.70
2019-02-21T22:35:57.940Z,8.59
2019-02-21T22:38:27.733Z,8.55
2019-02-21T22:40:57.576Z,8.49
2019-02-21T22:43:27.385Z,8.45
2019-02-21T22:45:57.212Z,8.43
2019-02-21T22:48:27.127Z,8.55
2019-02-21T22:50:56.916Z,8.81
2019-02-21T22:53:26.725Z,9.06
2019-02-21T22:55:56.479Z,9.00
2019-02-21T22:58:26.281Z,8.90
2019-02-21T23:01:00.145Z,8.77
2019-02-21T23:03:42.106Z,8.66
2019-02-21T23:06:43.775Z,8.56
2019-02-21T23:09:15.167Z,8.53
2019-02-21T23:11:45.063Z,8.53
2019-02-21T23:14:14.917Z,8.37
2019-02-21T23:16:44.728Z,8.33
2019-02-21T23:19:14.544Z,8.29
2019-02-21T23:21:44.361Z,8.25
2019-02-21T23:24:14.146Z,8.21
2019-02-21T23:26:44.011Z,8.17
2019-02-21T23:29:13.831Z,8.13
2019-02-21T23:31:44.769Z,8.05
2019-02-21T23:34:16.204Z,8.01
2019-02-21T23:36:46.004Z,7.97
2019-02-21T23:39:15.814Z,7.96
2019-02-21T23:41:45.650Z,7.93
2019-02-21T23:44:15.450Z,7.85
2019-02-21T23:46:45.429Z,7.83
2019-02-21T23:49:15.297Z,7.64
2019-02-21T23:51:45.076Z,7.54
2019-02-21T23:54:14.874Z,7.42
2019-02-21T23:56:44.653Z,7.38
2019-02-21T23:59:14.489Z,7.36
